Terminal Aerodrome Forecast
Issued by NWS

Home | Current Version | Previous Version | Text Only | Print | Product List | Glossary On
Versions: 1 2 3 4 5 6 7 8 9 10 11 12 13 14 15 16 17 18 19 20 21 22 23 24 25 26 27 28 29 30
000
FTUS46 KLOX 021500 AAB
TAFLAX
TAF AMD
KLAX 021557Z 0216/0318 00000KT P6SM FEW017 SCT022 SCT150
     FM021800 25007KT P6SM SCT015
     FM022100 27012KT P6SM FEW020
     FM030400 VRB03KT P6SM OVC015
     FM031600 25006KT P6SM OVC020=

USA.gov is the U.S. government's official web portal to all federal, state and local government web resources and services.